createdAt,value
2018-04-11T00:00:09.224Z,24.10
2018-04-11T00:02:36.814Z,24.27
2018-04-11T00:05:04.394Z,23.03
2018-04-11T00:07:31.969Z,24.20
2018-04-11T00:09:59.560Z,24.30
2018-04-11T00:12:27.124Z,25.57
2018-04-11T00:14:54.699Z,23.53
2018-04-11T00:17:22.366Z,25.30
2018-04-11T00:19:51.458Z,24.60
2018-04-11T00:22:19.048Z,26.23
2018-04-11T00:24:46.677Z,24.00
2018-04-11T00:27:14.323Z,24.30
2018-04-11T00:29:41.952Z,23.07
2018-04-11T00:32:09.507Z,24.90
2018-04-11T00:34:37.114Z,25.87
2018-04-11T00:37:04.693Z,25.03
2018-04-11T00:39:33.067Z,25.13
2018-04-11T00:42:00.708Z,23.93
2018-04-11T00:44:28.277Z,26.13
2018-04-11T00:46:55.879Z,23.77
2018-04-11T00:49:23.449Z,25.97
2018-04-11T00:51:51.029Z,25.20
2018-04-11T00:54:18.616Z,24.40
2018-04-11T00:56:46.175Z,24.50
2018-04-11T00:59:14.509Z,25.87
2018-04-11T01:01:42.107Z,25.60
2018-04-11T01:04:09.781Z,26.17
2018-04-11T01:06:37.373Z,25.70
2018-04-11T01:09:04.987Z,25.40
2018-04-11T01:11:32.571Z,25.33
2018-04-11T01:14:00.891Z,26.57
2018-04-11T01:16:28.580Z,28.67
2018-04-11T01:18:56.240Z,24.70
2018-04-11T01:21:23.798Z,26.03
2018-04-11T01:23:51.390Z,25.40
2018-04-11T01:26:19.735Z,27.40
2018-04-11T01:28:47.322Z,25.17
2018-04-11T01:31:14.888Z,25.17
2018-04-11T01:33:43.249Z,25.43
2018-04-11T01:36:11.583Z,25.23
2018-04-11T01:38:39.131Z,25.83
2018-04-11T01:41:06.735Z,25.00
2018-04-11T01:43:34.287Z,26.60
2018-04-11T01:46:01.859Z,24.87
2018-04-11T01:48:29.418Z,26.40
2018-04-11T01:50:56.994Z,27.67
2018-04-11T01:53:25.330Z,26.83
2018-04-11T01:55:52.912Z,26.40
2018-04-11T01:58:20.495Z,24.97
2018-04-11T02:00:48.834Z,27.23
2018-04-11T02:03:16.431Z,26.43
2018-04-11T02:05:44.767Z,25.60
2018-04-11T02:08:12.341Z,25.70
2018-04-11T02:10:39.920Z,25.90
2018-04-11T02:13:07.507Z,24.40
2018-04-11T02:15:35.832Z,27.40
2018-04-11T02:18:03.439Z,26.10
2018-04-11T02:20:31.851Z,25.03
2018-04-11T02:22:59.438Z,24.80
2018-04-11T02:25:27.018Z,26.77
2018-04-11T02:27:55.347Z,23.77
2018-04-11T02:30:22.907Z,23.97
2018-04-11T02:32:50.487Z,26.77
2018-04-11T02:35:18.034Z,28.23
2018-04-11T02:37:45.606Z,27.40
2018-04-11T02:40:13.164Z,26.67
2018-04-11T02:42:40.743Z,26.50
2018-04-11T02:45:08.406Z,28.47
2018-04-11T02:47:35.991Z,28.80
2018-04-11T02:50:04.436Z,28.40
2018-04-11T02:52:31.989Z,27.80
2018-04-11T02:54:59.658Z,28.53
2018-04-11T02:57:27.222Z,28.43
2018-04-11T02:59:54.786Z,26.93
2018-04-11T03:02:22.431Z,28.70
2018-04-11T03:04:49.993Z,29.43
2018-04-11T03:07:17.579Z,26.77
2018-04-11T03:09:45.922Z,26.30
2018-04-11T03:12:13.483Z,30.17
2018-04-11T03:14:41.151Z,29.93
2018-04-11T03:17:08.722Z,27.97
2018-04-11T03:19:37.051Z,28.90
2018-04-11T03:22:04.644Z,30.10
2018-04-11T03:24:32.197Z,28.07
2018-04-11T03:26:59.783Z,30.00
2018-04-11T03:29:27.343Z,28.57
2018-04-11T03:31:55.713Z,28.07
2018-04-11T03:34:23.283Z,28.17
2018-04-11T03:36:50.840Z,29.50
2018-04-11T03:39:19.922Z,30.47
2018-04-11T03:41:47.500Z,29.00
2018-04-11T03:44:15.882Z,29.23
2018-04-11T03:46:44.217Z,29.00
2018-04-11T03:49:11.771Z,30.60
2018-04-11T03:51:39.342Z,30.07
2018-04-11T03:54:06.893Z,29.40
2018-04-11T03:56:34.449Z,29.13
2018-04-11T03:59:02.077Z,27.87
2018-04-11T04:01:29.663Z,30.50
2018-04-11T04:03:57.224Z,30.90
2018-04-11T04:06:24.820Z,31.40
2018-04-11T04:08:52.376Z,31.57
2018-04-11T04:11:20.032Z,31.43
2018-04-11T04:13:59.591Z,29.77
2018-04-11T04:16:39.088Z,32.50
2018-04-11T04:22:13.707Z,32.17
2018-04-11T04:24:41.288Z,30.67
2018-04-11T04:27:08.874Z,30.57
2018-04-11T04:29:36.455Z,32.70
2018-04-11T04:32:04.775Z,30.93
2018-04-11T04:34:32.351Z,33.17
2018-04-11T04:36:59.940Z,33.27
2018-04-11T04:39:27.509Z,30.40
2018-04-11T04:41:55.168Z,32.33
2018-04-11T04:44:22.807Z,31.63
2018-04-11T04:46:50.447Z,33.07
2018-04-11T04:49:18.005Z,32.03
2018-04-11T04:51:45.569Z,31.83
2018-04-11T04:54:13.147Z,34.40
2018-04-11T04:56:40.707Z,31.47
2018-04-11T04:59:08.319Z,33.50
2018-04-11T05:01:35.910Z,31.97
2018-04-11T05:04:03.486Z,32.73
2018-04-11T05:06:31.413Z,31.90
2018-04-11T05:08:59.005Z,34.13
2018-04-11T05:11:26.570Z,31.80
2018-04-11T05:13:54.146Z,34.37
2018-04-11T05:16:21.742Z,35.27
2018-04-11T05:18:49.355Z,33.90
2018-04-11T05:21:16.933Z,35.13
2018-04-11T05:23:44.492Z,33.70
2018-04-11T05:26:12.071Z,31.90
2018-04-11T05:28:40.403Z,34.37
2018-04-11T05:31:07.991Z,32.30
2018-04-11T05:33:35.637Z,32.20
2018-04-11T05:36:03.196Z,32.13
2018-04-11T05:38:30.851Z,34.07
2018-04-11T05:40:58.435Z,33.90
2018-04-11T05:43:26.072Z,34.40
2018-04-11T05:45:53.641Z,34.30
2018-04-11T05:48:22.834Z,34.70
2018-04-11T05:50:50.509Z,36.10
2018-04-11T05:53:18.151Z,38.73
2018-04-11T05:55:45.778Z,37.17
2018-04-11T05:58:13.368Z,39.40
2018-04-11T06:00:40.940Z,40.17
2018-04-11T06:03:08.503Z,43.23
2018-04-11T06:05:36.152Z,41.90
2018-04-11T06:08:03.708Z,41.23
2018-04-11T06:10:31.287Z,40.87
2018-04-11T06:12:58.938Z,39.90
2018-04-11T06:15:26.512Z,44.40
2018-04-11T06:17:54.067Z,46.07
2018-04-11T06:20:21.643Z,46.40
2018-04-11T06:22:50.001Z,46.03
2018-04-11T06:25:17.570Z,44.43
2018-04-11T06:27:45.221Z,43.00
2018-04-11T06:30:12.803Z,43.80
2018-04-11T06:32:41.159Z,44.47
2018-04-11T06:35:08.720Z,49.00
2018-04-11T06:37:37.086Z,43.10
2018-04-11T06:40:04.665Z,44.80
2018-04-11T06:42:32.238Z,45.30
2018-04-11T06:45:00.558Z,42.77
2018-04-11T06:47:28.134Z,42.50
2018-04-11T06:49:55.718Z,44.37
2018-04-11T06:52:23.309Z,42.03
2018-04-11T06:54:50.859Z,39.13
2018-04-11T06:57:19.218Z,39.00
2018-04-11T06:59:46.795Z,37.90
2018-04-11T07:02:15.126Z,37.27
2018-04-11T07:04:42.675Z,36.67
2018-04-11T07:07:10.354Z,35.63
2018-04-11T07:09:37.990Z,34.97
2018-04-11T07:12:05.545Z,35.40
2018-04-11T07:14:33.140Z,34.90
2018-04-11T07:17:00.803Z,37.50
2018-04-11T07:19:28.360Z,35.80
2018-04-11T07:21:56.026Z,36.57
2018-04-11T07:24:23.591Z,35.30
2018-04-11T07:26:51.283Z,36.60
2018-04-11T07:29:19.622Z,35.47
2018-04-11T07:31:47.193Z,36.30
2018-04-11T07:34:14.776Z,36.03
2018-04-11T07:36:43.120Z,36.00
2018-04-11T07:39:10.771Z,34.87
2018-04-11T07:41:38.346Z,36.20
2018-04-11T07:44:06.000Z,35.20
2018-04-11T07:46:33.654Z,34.87
2018-04-11T07:49:01.217Z,33.90
2018-04-11T07:51:28.774Z,34.30
2018-04-11T07:53:56.437Z,33.60
2018-04-11T07:56:23.994Z,33.90
2018-04-11T07:58:51.576Z,34.27
2018-04-11T08:01:19.221Z,34.43
2018-04-11T08:03:46.884Z,34.20
2018-04-11T08:06:14.456Z,35.50
2018-04-11T08:08:42.777Z,33.90
2018-04-11T08:11:10.349Z,33.57
2018-04-11T08:13:37.903Z,34.83
2018-04-11T08:16:05.498Z,33.50
2018-04-11T08:18:33.151Z,33.20
2018-04-11T08:21:00.708Z,32.40
2018-04-11T08:23:28.635Z,34.30
2018-04-11T08:25:56.183Z,32.10
2018-04-11T08:28:23.898Z,32.63
2018-04-11T08:30:51.451Z,33.93
2018-04-11T08:33:19.033Z,34.27
2018-04-11T08:35:46.590Z,34.43
2018-04-11T08:38:14.242Z,36.00
2018-04-11T08:40:41.789Z,32.87
2018-04-11T08:43:09.394Z,34.00
2018-04-11T08:45:37.707Z,34.53
2018-04-11T08:48:05.255Z,32.10
2018-04-11T08:50:32.831Z,30.60
2018-04-11T08:53:00.419Z,30.40
2018-04-11T08:55:28.015Z,31.20
2018-04-11T08:57:56.355Z,33.80
2018-04-11T09:00:23.915Z,34.77
2018-04-11T09:02:51.571Z,36.57
2018-04-11T09:05:19.151Z,36.60
2018-04-11T09:07:46.703Z,35.23
2018-04-11T09:10:14.290Z,35.70
2018-04-11T09:12:42.638Z,35.30
2018-04-11T09:15:11.013Z,36.23
2018-04-11T09:17:38.579Z,35.40
2018-04-11T09:20:06.172Z,38.27
2018-04-11T09:22:34.491Z,36.37
2018-04-11T09:25:02.078Z,35.80
2018-04-11T09:27:29.664Z,35.40
2018-04-11T09:29:58.015Z,33.33
2018-04-11T09:32:27.066Z,33.47
2018-04-11T09:34:54.670Z,31.23
2018-04-11T09:37:22.222Z,29.40
2018-04-11T09:39:49.786Z,27.43
2018-04-11T09:42:17.442Z,29.20
2018-04-11T09:44:45.104Z,28.27
2018-04-11T09:47:12.666Z,28.67
2018-04-11T09:49:40.251Z,29.23
2018-04-11T09:52:08.604Z,28.43
2018-04-11T09:54:36.199Z,27.90
2018-04-11T09:57:04.535Z,30.60
2018-04-11T09:59:32.096Z,28.60
2018-04-11T10:01:59.683Z,26.33
2018-04-11T10:04:28.051Z,27.80
2018-04-11T10:06:55.640Z,29.20
2018-04-11T10:09:23.257Z,30.00
2018-04-11T10:11:50.914Z,32.20
2018-04-11T10:14:18.472Z,33.73
2018-04-11T10:16:46.051Z,33.00
2018-04-11T10:19:13.615Z,34.17
2018-04-11T10:21:41.205Z,34.20
2018-04-11T10:24:08.771Z,32.00
2018-04-11T10:26:36.326Z,33.40
2018-04-11T10:29:03.926Z,35.47
2018-04-11T10:31:31.501Z,35.47
2018-04-11T10:33:59.063Z,36.30
2018-04-11T10:36:26.707Z,40.20
2018-04-11T10:38:54.271Z,38.80
2018-04-11T10:41:21.862Z,41.20
2018-04-11T10:43:50.214Z,39.57
2018-04-11T10:46:17.864Z,40.30
2018-04-11T10:48:45.435Z,40.90
2018-04-11T10:51:14.530Z,35.37
2018-04-11T10:53:42.102Z,35.70
2018-04-11T10:56:09.747Z,38.27
2018-04-11T10:58:37.323Z,36.67
2018-04-11T11:01:05.647Z,38.83
2018-04-11T11:03:33.235Z,39.80
2018-04-11T11:06:00.794Z,36.30
2018-04-11T11:08:28.359Z,34.43
2018-04-11T11:10:55.943Z,34.80
2018-04-11T11:13:23.585Z,35.77
2018-04-11T11:15:51.163Z,35.70
2018-04-11T11:18:18.807Z,34.60
2018-04-11T11:20:57.327Z,31.20
2018-04-11T11:23:24.885Z,31.97
2018-04-11T11:25:52.459Z,31.63
2018-04-11T11:28:20.037Z,31.87
2018-04-11T11:30:48.355Z,30.47
2018-04-11T11:33:16.014Z,29.93
2018-04-11T11:35:43.590Z,29.30
2018-04-11T11:38:11.267Z,26.20
2018-04-11T11:40:38.918Z,24.83
2018-04-11T11:43:06.478Z,21.33
2018-04-11T11:45:34.138Z,23.50
2018-04-11T11:48:01.801Z,22.00
2018-04-11T11:50:29.370Z,22.80
2018-04-11T11:52:57.747Z,23.00
2018-04-11T11:55:25.402Z,23.33
2018-04-11T11:57:53.060Z,22.83
2018-04-11T12:00:20.647Z,20.93
2018-04-11T12:02:48.200Z,20.97
2018-04-11T12:05:16.543Z,21.67
2018-04-11T12:07:44.118Z,22.43
2018-04-11T12:10:11.707Z,23.97
2018-04-11T12:12:40.038Z,21.30
2018-04-11T12:15:07.606Z,23.13
2018-04-11T12:17:35.177Z,22.90
2018-04-11T12:20:02.768Z,24.00
2018-04-11T12:22:31.108Z,21.60
2018-04-11T12:24:58.664Z,24.27
2018-04-11T12:27:26.240Z,21.43
2018-04-11T12:29:53.886Z,21.30
2018-04-11T12:32:21.458Z,21.30
2018-04-11T12:34:50.586Z,21.37
2018-04-11T12:37:18.958Z,21.73
2018-04-11T12:39:47.302Z,21.50
2018-04-11T12:42:14.908Z,21.27
2018-04-11T12:44:43.227Z,21.47
2018-04-11T12:47:10.808Z,21.50
2018-04-11T12:49:39.893Z,23.13
2018-04-11T12:52:07.484Z,20.63
2018-04-11T12:54:35.809Z,20.60
2018-04-11T12:57:03.374Z,19.77
2018-04-11T12:59:31.059Z,18.23
2018-04-11T13:01:58.654Z,18.57
2018-04-11T13:04:26.992Z,18.00
2018-04-11T13:06:54.568Z,17.40
2018-04-11T13:09:22.154Z,17.83
2018-04-11T13:11:50.471Z,16.77
2018-04-11T13:14:18.044Z,16.50
2018-04-11T13:16:45.623Z,18.63
2018-04-11T13:19:13.209Z,18.30
2018-04-11T13:21:41.579Z,14.70
2018-04-11T13:24:09.899Z,16.00
2018-04-11T13:26:37.475Z,14.10
2018-04-11T13:29:05.033Z,13.50
2018-04-11T13:31:32.612Z,13.57
2018-04-11T13:34:00.175Z,11.77
2018-04-11T13:36:27.818Z,12.17
2018-04-11T13:38:55.404Z,9.53
2018-04-11T13:41:23.017Z,8.17
2018-04-11T13:43:50.607Z,8.80
2018-04-11T13:46:18.162Z,8.50
2018-04-11T13:48:45.727Z,7.80
2018-04-11T13:51:13.310Z,6.97
2018-04-11T13:53:41.627Z,7.20
2018-04-11T13:56:09.177Z,6.30
2018-04-11T13:58:36.791Z,6.73
2018-04-11T14:01:04.370Z,6.97
2018-04-11T14:03:32.687Z,6.70
2018-04-11T14:06:00.279Z,7.60
2018-04-11T14:08:27.839Z,7.13
2018-04-11T14:10:55.419Z,7.40
2018-04-11T14:13:23.780Z,18.80
2018-04-11T14:15:51.444Z,20.47
2018-04-11T14:18:19.817Z,23.50
2018-04-11T14:20:47.381Z,24.50
2018-04-11T14:23:14.968Z,24.90
2018-04-11T14:25:43.319Z,24.90
2018-04-11T14:28:11.660Z,26.27
2018-04-11T14:30:39.240Z,25.83
2018-04-11T14:33:06.807Z,25.50
2018-04-11T14:35:34.390Z,23.77
2018-04-11T14:38:02.741Z,26.17
2018-04-11T14:40:30.303Z,28.27
2018-04-11T14:42:57.878Z,32.47
2018-04-11T14:45:25.463Z,29.30
2018-04-11T14:47:53.791Z,28.63
2018-04-11T14:50:21.370Z,30.57
2018-04-11T14:52:48.969Z,32.27
2018-04-11T14:55:16.524Z,31.93
2018-04-11T14:57:44.139Z,30.53
2018-04-11T15:00:11.746Z,28.60
2018-04-11T15:02:39.338Z,28.40
2018-04-11T15:05:06.926Z,27.77
2018-04-11T15:07:34.492Z,29.10
2018-04-11T15:10:02.078Z,30.93
2018-04-11T15:12:30.398Z,30.80
2018-04-11T15:14:58.083Z,32.53
2018-04-11T15:17:25.646Z,31.23
2018-04-11T15:19:53.230Z,32.57
2018-04-11T15:22:21.551Z,33.90
2018-04-11T15:24:49.115Z,32.90
2018-04-11T15:27:16.694Z,36.00
2018-04-11T15:29:44.357Z,34.40
2018-04-11T15:32:12.011Z,34.77
2018-04-11T15:34:39.676Z,35.00
2018-04-11T15:37:07.233Z,34.23
2018-04-11T15:39:34.800Z,37.87
2018-04-11T15:42:02.414Z,35.60
2018-04-11T15:44:29.989Z,37.53
2018-04-11T15:46:57.549Z,34.40
2018-04-11T15:49:25.241Z,35.87
2018-04-11T15:51:52.807Z,38.20
2018-04-11T15:54:21.891Z,35.27
2018-04-11T15:56:49.449Z,36.80
2018-04-11T15:59:17.002Z,36.20
2018-04-11T16:01:44.578Z,37.87
2018-04-11T16:04:12.179Z,36.20
2018-04-11T16:06:39.736Z,37.10
2018-04-11T16:09:08.050Z,39.13
2018-04-11T16:11:35.704Z,36.37
2018-04-11T16:14:03.274Z,36.07
2018-04-11T16:16:30.848Z,37.37
2018-04-11T16:18:58.429Z,35.10
2018-04-11T16:21:25.983Z,36.60
2018-04-11T16:23:53.627Z,36.93
2018-04-11T16:26:21.218Z,38.23
2018-04-11T16:28:49.540Z,36.27
2018-04-11T16:31:17.124Z,36.60
2018-04-11T16:33:44.784Z,36.50
2018-04-11T16:36:12.341Z,37.80
2018-04-11T16:38:39.962Z,39.30
2018-04-11T16:41:08.263Z,38.23
2018-04-11T16:43:35.846Z,38.30
2018-04-11T16:46:03.500Z,38.07
2018-04-11T16:48:31.071Z,39.47
2018-04-11T16:51:00.162Z,38.37
2018-04-11T16:53:27.724Z,40.73
2018-04-11T16:55:56.068Z,40.33
2018-04-11T16:58:23.655Z,41.60
2018-04-11T17:00:51.210Z,40.90
2018-04-11T17:03:18.775Z,42.40
2018-04-11T17:05:46.436Z,40.50
2018-04-11T17:08:14.087Z,40.90
2018-04-11T17:10:41.654Z,41.07
2018-04-11T17:13:09.234Z,40.97
2018-04-11T17:15:36.809Z,43.10
2018-04-11T17:18:05.261Z,42.00
2018-04-11T17:20:44.712Z,43.33
2018-04-11T17:23:24.087Z,42.70
2018-04-11T17:26:03.344Z,41.83
2018-04-11T17:28:42.844Z,45.47
2018-04-11T17:31:24.661Z,44.50
2018-04-11T17:33:52.242Z,43.97
2018-04-11T17:36:19.803Z,48.67
2018-04-11T17:38:47.423Z,49.43
2018-04-11T17:41:15.071Z,51.40
2018-04-11T17:43:42.624Z,51.10
2018-04-11T17:46:10.991Z,54.10
2018-04-11T17:48:39.336Z,52.77
2018-04-11T17:51:06.931Z,31.70
2018-04-11T17:53:34.520Z,24.57
2018-04-11T17:56:02.142Z,15.50
2018-04-11T17:58:29.725Z,10.83
2018-04-11T18:00:58.150Z,11.57
2018-04-11T18:03:25.735Z,9.37
2018-04-11T18:05:53.298Z,12.13
2018-04-11T18:08:20.916Z,12.10
2018-04-11T18:10:48.477Z,7.60
2018-04-11T18:13:16.076Z,6.90
2018-04-11T18:15:43.635Z,5.93
2018-04-11T18:18:12.717Z,6.30
2018-04-11T18:20:40.276Z,6.27
2018-04-11T18:23:07.851Z,7.10
2018-04-11T18:25:35.429Z,7.87
2018-04-11T18:28:03.783Z,8.33
2018-04-11T18:30:31.386Z,7.83
2018-04-11T18:32:59.195Z,10.50
2018-04-11T18:35:27.595Z,14.80
2018-04-11T18:37:55.155Z,17.37
2018-04-11T18:40:22.749Z,23.47
2018-04-11T18:42:50.327Z,35.17
2018-04-11T18:45:17.913Z,43.70
2018-04-11T18:47:45.507Z,50.30
2018-04-11T18:50:13.844Z,53.30
2018-04-11T18:52:41.441Z,60.07
2018-04-11T18:55:09.035Z,61.47
2018-04-11T18:57:36.611Z,62.70
2018-04-11T19:00:04.200Z,64.00
2018-04-11T19:02:31.767Z,65.10
2018-04-11T19:05:00.921Z,64.77
2018-04-11T19:07:28.575Z,67.57
2018-04-11T19:09:56.939Z,68.10
2018-04-11T19:12:24.523Z,72.33
2018-04-11T19:14:52.096Z,69.17
2018-04-11T19:17:19.708Z,70.87
2018-04-11T19:19:48.047Z,70.83
2018-04-11T19:22:15.673Z,68.43
2018-04-11T19:24:43.251Z,69.63
2018-04-11T19:27:10.844Z,68.03
2018-04-11T19:29:38.455Z,71.60
2018-04-11T19:32:06.079Z,71.00
2018-04-11T19:34:33.701Z,71.37
2018-04-11T19:37:02.036Z,70.57
2018-04-11T19:39:30.747Z,74.43
2018-04-11T19:41:58.320Z,74.30
2018-04-11T19:44:25.959Z,77.63
2018-04-11T19:46:53.516Z,74.00
2018-04-11T19:49:21.121Z,80.00
2018-04-11T19:51:48.708Z,74.83
2018-04-11T19:54:17.049Z,75.23
2018-04-11T19:56:44.646Z,75.27
2018-04-11T19:59:12.995Z,71.20
2018-04-11T20:01:40.588Z,76.50
2018-04-11T20:04:08.934Z,76.00
2018-04-11T20:06:36.490Z,72.57
2018-04-11T20:09:04.093Z,75.00
2018-04-11T20:11:32.418Z,70.93
2018-04-11T20:14:00.269Z,76.70
2018-04-11T20:16:27.848Z,74.90
2018-04-11T20:18:55.435Z,73.27
2018-04-11T20:21:22.990Z,76.20
2018-04-11T20:23:50.605Z,75.93
2018-04-11T20:26:18.169Z,77.47
2018-04-11T20:28:45.759Z,72.63
2018-04-11T20:31:13.339Z,69.10
2018-04-11T20:33:40.934Z,75.20
2018-04-11T20:36:08.499Z,74.80
2018-04-11T20:38:36.059Z,71.80
2018-04-11T20:41:03.656Z,71.33
2018-04-11T20:43:31.216Z,71.03
2018-04-11T20:45:58.788Z,70.47
2018-04-11T20:48:26.366Z,70.60
2018-04-11T20:50:54.733Z,70.80
2018-04-11T20:53:22.314Z,69.33
2018-04-11T20:55:50.632Z,66.13
2018-04-11T20:58:18.186Z,69.57
2018-04-11T21:00:45.779Z,70.77
2018-04-11T21:03:13.363Z,69.20
2018-04-11T21:05:41.711Z,65.60
2018-04-11T21:08:09.271Z,64.10
2018-04-11T21:10:36.895Z,62.17
2018-04-11T21:13:04.465Z,64.00
2018-04-11T21:15:32.025Z,63.60
2018-04-11T21:17:59.576Z,62.90
2018-04-11T21:20:27.114Z,60.20
2018-04-11T21:22:54.643Z,64.27
2018-04-11T21:25:22.198Z,62.60
2018-04-11T21:27:49.719Z,60.63
2018-04-11T21:30:17.265Z,60.60
2018-04-11T21:32:44.802Z,59.07
2018-04-11T21:35:13.094Z,60.43
2018-04-11T21:37:40.641Z,61.63
2018-04-11T21:40:08.163Z,60.93
2018-04-11T21:42:36.490Z,61.47
2018-04-11T21:45:04.017Z,60.20
2018-04-11T21:47:32.327Z,60.20
2018-04-11T21:49:59.881Z,60.10
2018-04-11T21:52:27.407Z,62.43
2018-04-11T21:54:54.938Z,62.77
2018-04-11T21:57:22.487Z,65.67
2018-04-11T21:59:50.042Z,67.00
2018-04-11T22:02:17.595Z,65.40
2018-04-11T22:04:45.180Z,61.57
2018-04-11T22:07:12.673Z,61.03
2018-04-11T22:09:40.964Z,65.37
2018-04-11T22:12:08.510Z,62.53
2018-04-11T22:14:36.807Z,62.67
2018-04-11T22:17:04.369Z,63.23
2018-04-11T22:19:31.907Z,64.67
2018-04-11T22:22:00.202Z,66.07
2018-04-11T22:24:27.757Z,65.87
2018-04-11T22:26:55.300Z,64.10
2018-04-11T22:29:23.603Z,62.70
2018-04-11T22:31:51.159Z,62.80
2018-04-11T22:34:18.679Z,61.40
2018-04-11T22:36:46.230Z,59.10
2018-04-11T22:39:13.755Z,61.33
2018-04-11T22:41:41.288Z,61.70
2018-04-11T22:44:08.835Z,55.60
2018-04-11T22:46:36.387Z,58.13
2018-04-11T22:49:04.702Z,55.33
2018-04-11T22:51:32.221Z,58.23
2018-04-11T22:54:00.531Z,57.70
2018-04-11T22:56:28.064Z,56.83
2018-04-11T22:58:55.650Z,56.10
2018-04-11T23:01:23.182Z,56.03
2018-04-11T23:03:51.482Z,56.20
2018-04-11T23:06:19.146Z,59.87
2018-04-11T23:08:46.718Z,54.80
2018-04-11T23:11:14.264Z,57.97
2018-04-11T23:13:41.785Z,55.90
2018-04-11T23:16:10.103Z,55.47
2018-04-11T23:18:37.641Z,59.27
2018-04-11T23:21:05.205Z,58.13
2018-04-11T23:23:32.760Z,58.60
2018-04-11T23:26:00.293Z,54.53
2018-04-11T23:28:28.593Z,55.00
2018-04-11T23:30:56.154Z,59.53
2018-04-11T23:33:23.672Z,55.30
2018-04-11T23:35:51.223Z,54.63
2018-04-11T23:38:18.759Z,57.50
2018-04-11T23:40:46.303Z,53.97
2018-04-11T23:43:13.843Z,53.47
2018-04-11T23:45:41.372Z,57.40
2018-04-11T23:48:08.897Z,55.37
2018-04-11T23:50:36.446Z,53.97
2018-04-11T23:53:04.000Z,53.13
2018-04-11T23:55:31.515Z,53.10
2018-04-11T23:57:59.833Z,55.50
